sensor_id;sensor_type;location;lat;lon;timestamp;pressure;altitude;pressure_sealevel;temperature;humidity
21276;BME280;36472;52.170;20.884;2023-05-24T00:00:22;100061.25;;;19.80;48.69
21276;BME280;36472;52.170;20.884;2023-05-24T00:03:13;100054.59;;;19.76;48.84
21276;BME280;36472;52.170;20.884;2023-05-24T00:05:43;100053.06;;;19.73;49.18
21276;BME280;36472;52.170;20.884;2023-05-24T00:08:13;100052.25;;;19.73;49.39
21276;BME280;36472;52.170;20.884;2023-05-24T00:10:43;100056.91;;;19.71;49.89
21276;BME280;36472;52.170;20.884;2023-05-24T00:13:12;100048.25;;;19.69;49.84
21276;BME280;36472;52.170;20.884;2023-05-24T00:15:42;100042.09;;;19.68;49.87
21276;BME280;36472;52.170;20.884;2023-05-24T00:18:12;100045.72;;;19.67;49.84
21276;BME280;36472;52.170;20.884;2023-05-24T00:20:41;100038.44;;;19.61;49.97
21276;BME280;36472;52.170;20.884;2023-05-24T00:23:10;100042.09;;;19.60;50.32
21276;BME280;36472;52.170;20.884;2023-05-24T00:25:39;100040.41;;;19.59;50.37
21276;BME280;36472;52.170;20.884;2023-05-24T00:28:08;100041.91;;;19.53;50.19
21276;BME280;36472;52.170;20.884;2023-05-24T00:30:37;100035.09;;;19.51;50.27
21276;BME280;36472;52.170;20.884;2023-05-24T00:33:06;100029.78;;;19.51;49.86
21276;BME280;36472;52.170;20.884;2023-05-24T00:35:36;100030.25;;;19.46;49.01
21276;BME280;36472;52.170;20.884;2023-05-24T00:38:05;100040.94;;;19.46;49.00
21276;BME280;36472;52.170;20.884;2023-05-24T00:40:34;100038.25;;;19.46;48.93
21276;BME280;36472;52.170;20.884;2023-05-24T00:43:03;100036.59;;;19.45;48.44
21276;BME280;36472;52.170;20.884;2023-05-24T00:45:32;100035.75;;;19.44;48.85
21276;BME280;36472;52.170;20.884;2023-05-24T00:48:01;100037.75;;;19.42;48.64
21276;BME280;36472;52.170;20.884;2023-05-24T00:50:31;100035.75;;;19.44;48.62
21276;BME280;36472;52.170;20.884;2023-05-24T00:53:03;100036.09;;;19.41;49.10
21276;BME280;36472;52.170;20.884;2023-05-24T00:55:33;100037.94;;;19.41;48.96
21276;BME280;36472;52.170;20.884;2023-05-24T00:58:03;100034.59;;;19.39;48.41
21276;BME280;36472;52.170;20.884;2023-05-24T01:00:32;100037.09;;;19.40;48.47
21276;BME280;36472;52.170;20.884;2023-05-24T01:03:01;100032.75;;;19.39;48.57
21276;BME280;36472;52.170;20.884;2023-05-24T01:05:32;100035.91;;;19.35;48.99
21276;BME280;36472;52.170;20.884;2023-05-24T01:08:11;100033.09;;;19.36;49.12
21276;BME280;36472;52.170;20.884;2023-05-24T01:10:52;100032.44;;;19.34;49.13
21276;BME280;36472;52.170;20.884;2023-05-24T01:13:30;100030.59;;;19.35;48.84
21276;BME280;36472;52.170;20.884;2023-05-24T01:16:10;100032.25;;;19.36;49.08
21276;BME280;36472;52.170;20.884;2023-05-24T01:18:45;100029.75;;;19.34;49.29
21276;BME280;36472;52.170;20.884;2023-05-24T01:21:39;100031.75;;;19.32;49.17
21276;BME280;36472;52.170;20.884;2023-05-24T01:24:28;100029.44;;;19.29;49.00
21276;BME280;36472;52.170;20.884;2023-05-24T01:27:06;100031.44;;;19.27;49.09
21276;BME280;36472;52.170;20.884;2023-05-24T01:29:36;100043.06;;;19.26;49.43
21276;BME280;36472;52.170;20.884;2023-05-24T01:32:06;100035.25;;;19.24;49.16
21276;BME280;36472;52.170;20.884;2023-05-24T01:34:36;100031.59;;;19.25;49.55
21276;BME280;36472;52.170;20.884;2023-05-24T01:37:05;100045.25;;;19.22;49.70
21276;BME280;36472;52.170;20.884;2023-05-24T01:39:34;100044.56;;;19.20;50.29
21276;BME280;36472;52.170;20.884;2023-05-24T01:42:10;100041.09;;;19.20;50.31
21276;BME280;36472;52.170;20.884;2023-05-24T01:44:54;100039.06;;;19.14;50.43
21276;BME280;36472;52.170;20.884;2023-05-24T01:47:43;100037.06;;;19.16;50.27
21276;BME280;36472;52.170;20.884;2023-05-24T01:50:21;100036.88;;;19.09;50.60
21276;BME280;36472;52.170;20.884;2023-05-24T01:52:53;100036.22;;;19.07;50.50
21276;BME280;36472;52.170;20.884;2023-05-24T01:55:27;100042.53;;;19.06;49.88
21276;BME280;36472;52.170;20.884;2023-05-24T01:58:02;100044.38;;;19.05;50.00
21276;BME280;36472;52.170;20.884;2023-05-24T02:00:33;100033.72;;;18.97;50.57
21276;BME280;36472;52.170;20.884;2023-05-24T02:03:03;100041.69;;;18.97;50.64
21276;BME280;36472;52.170;20.884;2023-05-24T02:05:32;100041.84;;;18.96;50.32
21276;BME280;36472;52.170;20.884;2023-05-24T02:08:06;100042.88;;;18.95;51.04
21276;BME280;36472;52.170;20.884;2023-05-24T02:10:35;100041.66;;;18.89;50.39
21276;BME280;36472;52.170;20.884;2023-05-24T02:13:08;100038.50;;;18.85;50.62
21276;BME280;36472;52.170;20.884;2023-05-24T02:15:37;100044.00;;;18.84;50.76
21276;BME280;36472;52.170;20.884;2023-05-24T02:18:13;100032.66;;;18.82;50.65
21276;BME280;36472;52.170;20.884;2023-05-24T02:20:45;100034.63;;;18.80;50.41
21276;BME280;36472;52.170;20.884;2023-05-24T02:23:15;100048.28;;;18.77;50.61
21276;BME280;36472;52.170;20.884;2023-05-24T02:25:44;100035.81;;;18.77;50.53
21276;BME280;36472;52.170;20.884;2023-05-24T02:28:15;100039.63;;;18.75;50.90
21276;BME280;36472;52.170;20.884;2023-05-24T02:30:43;100033.78;;;18.71;51.20
21276;BME280;36472;52.170;20.884;2023-05-24T02:33:13;100040.94;;;18.71;50.98
21276;BME280;36472;52.170;20.884;2023-05-24T02:35:42;100041.94;;;18.69;50.80
21276;BME280;36472;52.170;20.884;2023-05-24T02:38:11;100044.75;;;18.68;51.00
21276;BME280;36472;52.170;20.884;2023-05-24T02:40:40;100040.59;;;18.65;50.77
21276;BME280;36472;52.170;20.884;2023-05-24T02:43:09;100041.59;;;18.64;50.64
21276;BME280;36472;52.170;20.884;2023-05-24T02:45:40;100037.09;;;18.65;50.69
21276;BME280;36472;52.170;20.884;2023-05-24T02:48:09;100040.09;;;18.62;50.06
21276;BME280;36472;52.170;20.884;2023-05-24T02:50:38;100041.91;;;18.61;50.65
21276;BME280;36472;52.170;20.884;2023-05-24T02:53:07;100043.56;;;18.62;49.72
21276;BME280;36472;52.170;20.884;2023-05-24T02:55:36;100047.38;;;18.60;50.83
21276;BME280;36472;52.170;20.884;2023-05-24T02:58:05;100048.22;;;18.60;50.24
21276;BME280;36472;52.170;20.884;2023-05-24T03:00:35;100051.88;;;18.59;50.04
21276;BME280;36472;52.170;20.884;2023-05-24T03:03:07;100049.22;;;18.59;49.86
21276;BME280;36472;52.170;20.884;2023-05-24T03:05:36;100046.72;;;18.58;49.50
21276;BME280;36472;52.170;20.884;2023-05-24T03:08:05;100050.69;;;18.54;50.12
21276;BME280;36472;52.170;20.884;2023-05-24T03:10:35;100052.50;;;18.53;50.15
21276;BME280;36472;52.170;20.884;2023-05-24T03:13:06;100056.53;;;18.57;50.33
21276;BME280;36472;52.170;20.884;2023-05-24T03:15:37;100050.53;;;18.55;50.76
21276;BME280;36472;52.170;20.884;2023-05-24T03:18:08;100053.03;;;18.57;49.82
21276;BME280;36472;52.170;20.884;2023-05-24T03:20:38;100054.84;;;18.56;50.58
21276;BME280;36472;52.170;20.884;2023-05-24T03:23:08;100057.50;;;18.56;51.21
21276;BME280;36472;52.170;20.884;2023-05-24T03:25:37;100064.50;;;18.57;51.83
21276;BME280;36472;52.170;20.884;2023-05-24T03:28:06;100065.66;;;18.55;51.79
21276;BME280;36472;52.170;20.884;2023-05-24T03:30:35;100066.50;;;18.55;52.34
21276;BME280;36472;52.170;20.884;2023-05-24T03:33:04;100067.34;;;18.56;51.25
21276;BME280;36472;52.170;20.884;2023-05-24T03:35:34;100066.50;;;18.55;51.37
21276;BME280;36472;52.170;20.884;2023-05-24T03:38:04;100065.66;;;18.55;51.91
21276;BME280;36472;52.170;20.884;2023-05-24T03:40:34;100066.97;;;18.50;52.22
21276;BME280;36472;52.170;20.884;2023-05-24T03:43:07;100064.63;;;18.47;52.41
21276;BME280;36472;52.170;20.884;2023-05-24T03:45:44;100061.00;;;18.48;52.75
21276;BME280;36472;52.170;20.884;2023-05-24T03:48:13;100064.63;;;18.47;52.80
21276;BME280;36472;52.170;20.884;2023-05-24T03:50:43;100066.16;;;18.50;52.46
21276;BME280;36472;52.170;20.884;2023-05-24T03:53:13;100070.31;;;18.53;52.52
21276;BME280;36472;52.170;20.884;2023-05-24T03:55:41;100076.66;;;18.52;51.89
21276;BME280;36472;52.170;20.884;2023-05-24T03:58:12;100075.47;;;18.54;51.49
21276;BME280;36472;52.170;20.884;2023-05-24T04:00:41;100075.16;;;18.57;50.31
21276;BME280;36472;52.170;20.884;2023-05-24T04:03:10;100082.84;;;18.60;50.77
21276;BME280;36472;52.170;20.884;2023-05-24T04:05:39;100081.50;;;18.64;51.95
21276;BME280;36472;52.170;20.884;2023-05-24T04:08:10;100084.00;;;18.66;52.08
21276;BME280;36472;52.170;20.884;2023-05-24T04:10:41;100082.69;;;18.70;52.76
21276;BME280;36472;52.170;20.884;2023-05-24T04:13:12;100088.84;;;18.71;52.15
21276;BME280;36472;52.170;20.884;2023-05-24T04:15:41;100086.56;;;18.76;51.31
21276;BME280;36472;52.170;20.884;2023-05-24T04:18:11;100096.41;;;18.83;50.73
21276;BME280;36472;52.170;20.884;2023-05-24T04:20:40;100093.59;;;18.85;50.56
21276;BME280;36472;52.170;20.884;2023-05-24T04:23:11;100093.78;;;18.92;50.97
21276;BME280;36472;52.170;20.884;2023-05-24T04:25:41;100103.94;;;18.96;50.27
21276;BME280;36472;52.170;20.884;2023-05-24T04:28:10;100097.13;;;19.02;50.97
21276;BME280;36472;52.170;20.884;2023-05-24T04:30:39;100100.81;;;19.09;52.95
21276;BME280;36472;52.170;20.884;2023-05-24T04:33:08;100105.19;;;19.18;50.61
21276;BME280;36472;52.170;20.884;2023-05-24T04:35:37;100110.16;;;19.21;50.70
21276;BME280;36472;52.170;20.884;2023-05-24T04:38:07;100110.00;;;19.23;49.47
21276;BME280;36472;52.170;20.884;2023-05-24T04:40:40;100113.84;;;19.29;48.80
21276;BME280;36472;52.170;20.884;2023-05-24T04:43:09;100112.84;;;19.30;48.69
21276;BME280;36472;52.170;20.884;2023-05-24T04:45:38;100113.16;;;19.27;48.75
21276;BME280;36472;52.170;20.884;2023-05-24T04:48:08;100111.69;;;19.32;48.87
21276;BME280;36472;52.170;20.884;2023-05-24T04:50:37;100119.16;;;19.37;48.73
21276;BME280;36472;52.170;20.884;2023-05-24T04:53:07;100115.34;;;19.39;49.81
21276;BME280;36472;52.170;20.884;2023-05-24T04:55:35;100124.03;;;19.50;49.24
21276;BME280;36472;52.170;20.884;2023-05-24T04:58:06;100124.69;;;19.52;48.54
21276;BME280;36472;52.170;20.884;2023-05-24T05:00:37;100124.03;;;19.58;47.84
21276;BME280;36472;52.170;20.884;2023-05-24T05:03:06;100123.38;;;19.64;47.95
21276;BME280;36472;52.170;20.884;2023-05-24T05:05:36;100126.72;;;19.66;48.30
21276;BME280;36472;52.170;20.884;2023-05-24T05:08:05;100127.72;;;19.65;47.61
21276;BME280;36472;52.170;20.884;2023-05-24T05:10:35;100135.03;;;19.63;47.37
21276;BME280;36472;52.170;20.884;2023-05-24T05:13:05;100136.19;;;19.60;46.81
21276;BME280;36472;52.170;20.884;2023-05-24T05:15:34;100143.53;;;19.67;48.15
21276;BME280;36472;52.170;20.884;2023-05-24T05:18:03;100142.56;;;19.76;47.90
21276;BME280;36472;52.170;20.884;2023-05-24T05:20:32;100143.06;;;19.88;47.52
21276;BME280;36472;52.170;20.884;2023-05-24T05:23:01;100144.38;;;20.08;46.62
21276;BME280;36472;52.170;20.884;2023-05-24T05:25:30;100158.88;;;20.22;46.92
21276;BME280;36472;52.170;20.884;2023-05-24T05:27:59;100152.72;;;20.05;46.11
21276;BME280;36472;52.170;20.884;2023-05-24T05:30:30;100149.88;;;20.23;45.82
21276;BME280;36472;52.170;20.884;2023-05-24T05:32:59;100152.22;;;20.26;45.79
21276;BME280;36472;52.170;20.884;2023-05-24T05:35:28;100146.19;;;20.32;45.15
21276;BME280;36472;52.170;20.884;2023-05-24T05:37:57;100149.13;;;20.70;44.78
21276;BME280;36472;52.170;20.884;2023-05-24T05:40:26;100151.50;;;21.05;44.75
21276;BME280;36472;52.170;20.884;2023-05-24T05:42:55;100159.03;;;21.33;43.68
21276;BME280;36472;52.170;20.884;2023-05-24T05:45:24;100155.25;;;21.50;43.18
21276;BME280;36472;52.170;20.884;2023-05-24T05:47:54;100154.22;;;21.59;42.69
21276;BME280;36472;52.170;20.884;2023-05-24T05:50:23;100160.00;;;21.86;43.28
21276;BME280;36472;52.170;20.884;2023-05-24T05:52:52;100161.34;;;22.05;42.17
21276;BME280;36472;52.170;20.884;2023-05-24T05:55:21;100159.06;;;22.40;42.43
21276;BME280;36472;52.170;20.884;2023-05-24T05:57:50;100159.06;;;22.55;41.69
21276;BME280;36472;52.170;20.884;2023-05-24T06:00:21;100166.72;;;22.73;41.96
21276;BME280;36472;52.170;20.884;2023-05-24T06:02:51;100173.94;;;22.57;41.26
21276;BME280;36472;52.170;20.884;2023-05-24T06:05:21;100182.16;;;22.18;41.33
21276;BME280;36472;52.170;20.884;2023-05-24T06:07:50;100173.31;;;21.94;42.12
21276;BME280;36472;52.170;20.884;2023-05-24T06:10:19;100183.06;;;21.64;42.58
21276;BME280;36472;52.170;20.884;2023-05-24T06:12:48;100185.63;;;21.57;42.81
21276;BME280;36472;52.170;20.884;2023-05-24T06:15:17;100185.81;;;21.79;43.42
21276;BME280;36472;52.170;20.884;2023-05-24T06:17:49;100188.78;;;22.22;42.82
21276;BME280;36472;52.170;20.884;2023-05-24T06:20:20;100191.84;;;22.57;41.92
21276;BME280;36472;52.170;20.884;2023-05-24T06:22:50;100193.16;;;22.91;41.38
21276;BME280;36472;52.170;20.884;2023-05-24T06:25:19;100197.59;;;23.13;41.27
21276;BME280;36472;52.170;20.884;2023-05-24T06:27:49;100203.69;;;23.07;39.35
21276;BME280;36472;52.170;20.884;2023-05-24T06:30:19;100202.56;;;23.02;40.78
21276;BME280;36472;52.170;20.884;2023-05-24T06:32:48;100221.03;;;22.96;40.64
21276;BME280;36472;52.170;20.884;2023-05-24T06:35:17;100213.72;;;23.05;40.78
21276;BME280;36472;52.170;20.884;2023-05-24T06:37:48;100215.03;;;23.24;40.93
21276;BME280;36472;52.170;20.884;2023-05-24T06:40:17;100218.44;;;23.03;40.10
21276;BME280;36472;52.170;20.884;2023-05-24T06:42:46;100222.44;;;23.07;39.89
21276;BME280;36472;52.170;20.884;2023-05-24T06:45:15;100228.31;;;22.58;39.81
21276;BME280;36472;52.170;20.884;2023-05-24T06:47:44;100235.44;;;22.95;40.47
21276;BME280;36472;52.170;20.884;2023-05-24T06:50:13;100232.22;;;23.00;39.55
21276;BME280;36472;52.170;20.884;2023-05-24T06:52:43;100227.03;;;22.84;39.98
21276;BME280;36472;52.170;20.884;2023-05-24T06:55:13;100225.28;;;22.76;40.38
21276;BME280;36472;52.170;20.884;2023-05-24T06:57:42;100231.38;;;22.85;41.87
21276;BME280;36472;52.170;20.884;2023-05-24T07:00:13;100227.59;;;22.79;41.99
21276;BME280;36472;52.170;20.884;2023-05-24T07:02:42;100235.84;;;23.07;42.50
21276;BME280;36472;52.170;20.884;2023-05-24T07:05:11;100236.09;;;23.27;40.23
21276;BME280;36472;52.170;20.884;2023-05-24T07:07:41;100234.78;;;23.38;41.38
21276;BME280;36472;52.170;20.884;2023-05-24T07:10:11;100242.47;;;22.96;40.64
21276;BME280;36472;52.170;20.884;2023-05-24T07:12:41;100244.06;;;23.06;41.74
21276;BME280;36472;52.170;20.884;2023-05-24T07:15:10;100244.44;;;23.18;41.05
21276;BME280;36472;52.170;20.884;2023-05-24T07:17:39;100244.88;;;23.21;42.41
21276;BME280;36472;52.170;20.884;2023-05-24T07:20:10;100250.47;;;23.20;41.75
21276;BME280;36472;52.170;20.884;2023-05-24T07:22:40;100255.81;;;23.20;40.60
21276;BME280;36472;52.170;20.884;2023-05-24T07:25:10;100258.41;;;23.13;40.75
21276;BME280;36472;52.170;20.884;2023-05-24T07:27:40;100258.22;;;23.14;40.95
21276;BME280;36472;52.170;20.884;2023-05-24T07:30:10;100264.31;;;23.23;40.86
21276;BME280;36472;52.170;20.884;2023-05-24T07:32:58;100265.13;;;23.24;40.71
21276;BME280;36472;52.170;20.884;2023-05-24T07:35:28;100270.69;;;23.37;40.03
21276;BME280;36472;52.170;20.884;2023-05-24T07:37:57;100265.66;;;23.49;40.11
21276;BME280;36472;52.170;20.884;2023-05-24T07:40:26;100268.63;;;23.76;39.89
21276;BME280;36472;52.170;20.884;2023-05-24T07:42:57;100269.97;;;24.01;39.37
21276;BME280;36472;52.170;20.884;2023-05-24T07:45:25;100276.50;;;24.14;38.99
21276;BME280;36472;52.170;20.884;2023-05-24T07:47:55;100278.97;;;24.37;38.64
21276;BME280;36472;52.170;20.884;2023-05-24T07:50:23;100283.38;;;24.23;39.14
21276;BME280;36472;52.170;20.884;2023-05-24T07:52:53;100289.22;;;24.26;39.71
21276;BME280;36472;52.170;20.884;2023-05-24T07:55:22;100285.69;;;24.04;39.17
21276;BME280;36472;52.170;20.884;2023-05-24T07:57:51;100292.66;;;24.20;39.48
21276;BME280;36472;52.170;20.884;2023-05-24T08:00:22;100297.38;;;24.40;40.37
21276;BME280;36472;52.170;20.884;2023-05-24T08:02:52;100294.75;;;24.46;39.62
21276;BME280;36472;52.170;20.884;2023-05-24T08:05:21;100293.34;;;24.51;39.12
21276;BME280;36472;52.170;20.884;2023-05-24T08:07:50;100294.13;;;24.44;39.53
21276;BME280;36472;52.170;20.884;2023-05-24T08:10:19;100297.44;;;24.46;39.49
21276;BME280;36472;52.170;20.884;2023-05-24T08:12:49;100301.19;;;24.52;39.39
21276;BME280;36472;52.170;20.884;2023-05-24T08:15:23;100303.41;;;24.63;40.30
21276;BME280;36472;52.170;20.884;2023-05-24T08:17:52;100303.41;;;24.63;38.88
21276;BME280;36472;52.170;20.884;2023-05-24T08:20:21;100311.03;;;24.60;38.83
21276;BME280;36472;52.170;20.884;2023-05-24T08:22:50;100307.91;;;24.56;39.83
21276;BME280;36472;52.170;20.884;2023-05-24T08:25:19;100313.28;;;24.63;39.60
21276;BME280;36472;52.170;20.884;2023-05-24T08:27:49;100311.75;;;24.75;38.37
21276;BME280;36472;52.170;20.884;2023-05-24T08:30:19;100312.34;;;24.71;38.65
21276;BME280;36472;52.170;20.884;2023-05-24T08:32:50;100313.84;;;24.80;39.28
21276;BME280;36472;52.170;20.884;2023-05-24T08:35:19;100311.84;;;24.89;40.10
21276;BME280;36472;52.170;20.884;2023-05-24T08:37:49;100311.88;;;24.95;40.69
21276;BME280;36472;52.170;20.884;2023-05-24T08:40:18;100315.63;;;24.94;40.17
21276;BME280;36472;52.170;20.884;2023-05-24T08:42:49;100319.41;;;24.78;39.89
21276;BME280;36472;52.170;20.884;2023-05-24T08:45:20;100310.38;;;24.58;41.52
21276;BME280;36472;52.170;20.884;2023-05-24T08:47:51;100321.44;;;24.48;40.51
21276;BME280;36472;52.170;20.884;2023-05-24T08:50:22;100320.00;;;24.31;41.09
21276;BME280;36472;52.170;20.884;2023-05-24T08:52:53;100319.13;;;24.23;41.99
21276;BME280;36472;52.170;20.884;2023-05-24T08:55:22;100316.56;;;24.15;42.04
21276;BME280;36472;52.170;20.884;2023-05-24T08:57:54;100322.97;;;24.14;44.13
21276;BME280;36472;52.170;20.884;2023-05-24T09:00:24;100322.44;;;24.04;42.92
21276;BME280;36472;52.170;20.884;2023-05-24T09:02:56;100326.91;;;23.97;41.39
21276;BME280;36472;52.170;20.884;2023-05-24T09:05:27;100326.25;;;23.95;43.31
21276;BME280;36472;52.170;20.884;2023-05-24T09:07:59;100327.28;;;23.94;43.38
21276;BME280;36472;52.170;20.884;2023-05-24T09:10:32;100339.81;;;23.86;43.84
21276;BME280;36472;52.170;20.884;2023-05-24T09:13:22;100337.50;;;23.83;44.46
21276;BME280;36472;52.170;20.884;2023-05-24T09:15:52;100340.88;;;23.77;45.35
21276;BME280;36472;52.170;20.884;2023-05-24T09:18:22;100345.25;;;23.78;45.88
21276;BME280;36472;52.170;20.884;2023-05-24T09:20:51;100339.69;;;23.80;44.63
21276;BME280;36472;52.170;20.884;2023-05-24T09:23:23;100347.94;;;23.78;44.83
21276;BME280;36472;52.170;20.884;2023-05-24T09:25:53;100343.03;;;23.82;44.81
21276;BME280;36472;52.170;20.884;2023-05-24T09:28:22;100350.63;;;23.93;44.20
21276;BME280;36472;52.170;20.884;2023-05-24T09:31:00;100344.84;;;23.96;43.64
21276;BME280;36472;52.170;20.884;2023-05-24T09:33:37;100355.59;;;23.96;43.63
21276;BME280;36472;52.170;20.884;2023-05-24T09:36:08;100352.78;;;24.04;43.73
21276;BME280;36472;52.170;20.884;2023-05-24T09:38:37;100357.84;;;24.14;42.58
21276;BME280;36472;52.170;20.884;2023-05-24T09:41:07;100366.09;;;24.13;42.76
21276;BME280;36472;52.170;20.884;2023-05-24T09:43:47;100358.56;;;24.23;43.03
21276;BME280;36472;52.170;20.884;2023-05-24T09:46:17;100361.13;;;24.31;43.71
21276;BME280;36472;52.170;20.884;2023-05-24T09:48:59;100362.78;;;24.32;42.06
21276;BME280;36472;52.170;20.884;2023-05-24T09:51:30;100362.34;;;24.28;42.06
21276;BME280;36472;52.170;20.884;2023-05-24T09:54:01;100374.75;;;24.30;43.47
21276;BME280;36472;52.170;20.884;2023-05-24T09:56:32;100367.13;;;24.33;42.40
21276;BME280;36472;52.170;20.884;2023-05-24T09:59:06;100371.94;;;24.38;42.87
21276;BME280;36472;52.170;20.884;2023-05-24T10:01:36;100363.88;;;24.38;43.28
21276;BME280;36472;52.170;20.884;2023-05-24T10:04:07;100371.16;;;24.44;43.36
21276;BME280;36472;52.170;20.884;2023-05-24T10:06:37;100367.34;;;24.53;44.75
21276;BME280;36472;52.170;20.884;2023-05-24T10:09:08;100369.03;;;24.54;41.78
21276;BME280;36472;52.170;20.884;2023-05-24T10:11:37;100376.69;;;24.57;42.71
21276;BME280;36472;52.170;20.884;2023-05-24T10:14:09;100382.38;;;24.69;43.74
21276;BME280;36472;52.170;20.884;2023-05-24T10:16:38;100373.50;;;24.69;42.06
21276;BME280;36472;52.170;20.884;2023-05-24T10:19:09;100378.69;;;24.70;41.94
21276;BME280;36472;52.170;20.884;2023-05-24T10:21:42;100377.44;;;24.73;40.73
21276;BME280;36472;52.170;20.884;2023-05-24T10:24:14;100374.31;;;24.69;41.27
21276;BME280;36472;52.170;20.884;2023-05-24T10:26:47;100382.19;;;24.71;41.41
21276;BME280;36472;52.170;20.884;2023-05-24T10:29:31;100380.44;;;24.85;42.32
21276;BME280;36472;52.170;20.884;2023-05-24T10:32:04;100374.06;;;24.86;41.21
21276;BME280;36472;52.170;20.884;2023-05-24T10:34:36;100377.44;;;24.94;42.18
21276;BME280;36472;52.170;20.884;2023-05-24T10:37:05;100380.13;;;24.94;42.12
21276;BME280;36472;52.170;20.884;2023-05-24T10:39:35;100384.56;;;25.09;41.39
21276;BME280;36472;52.170;20.884;2023-05-24T10:42:05;100381.88;;;25.09;41.11
21276;BME280;36472;52.170;20.884;2023-05-24T10:44:36;100376.88;;;25.06;41.11
21276;BME280;36472;52.170;20.884;2023-05-24T10:47:10;100386.63;;;25.07;40.78
21276;BME280;36472;52.170;20.884;2023-05-24T10:49:49;100380.72;;;25.18;41.85
21276;BME280;36472;52.170;20.884;2023-05-24T10:52:19;100386.97;;;25.25;41.05
21276;BME280;36472;52.170;20.884;2023-05-24T10:55:01;100387.72;;;25.41;40.96
21276;BME280;36472;52.170;20.884;2023-05-24T10:57:32;100394.72;;;25.42;40.83
21276;BME280;36472;52.170;20.884;2023-05-24T11:00:33;100394.69;;;25.70;39.68
21276;BME280;36472;52.170;20.884;2023-05-24T11:03:07;100399.13;;;25.91;39.84
21276;BME280;36472;52.170;20.884;2023-05-24T11:05:52;100395.97;;;26.29;39.81
21276;BME280;36472;52.170;20.884;2023-05-24T11:08:29;100397.25;;;26.53;39.60
21276;BME280;36472;52.170;20.884;2023-05-24T11:11:05;100395.38;;;26.54;38.47
21276;BME280;36472;52.170;20.884;2023-05-24T11:13:55;100394.19;;;26.83;37.93
21276;BME280;36472;52.170;20.884;2023-05-24T11:16:33;100395.22;;;26.95;38.64
21276;BME280;36472;52.170;20.884;2023-05-24T11:19:11;100398.31;;;27.12;37.58
21276;BME280;36472;52.170;20.884;2023-05-24T11:21:45;100398.53;;;27.31;38.53
21276;BME280;36472;52.170;20.884;2023-05-24T11:24:16;100402.88;;;27.45;37.94
21276;BME280;36472;52.170;20.884;2023-05-24T11:26:46;100400.78;;;27.47;36.33
21276;BME280;36472;52.170;20.884;2023-05-24T11:29:15;100399.50;;;27.56;37.79
21276;BME280;36472;52.170;20.884;2023-05-24T11:31:50;100391.22;;;27.51;36.84
21276;BME280;36472;52.170;20.884;2023-05-24T11:34:20;100394.34;;;27.41;37.64
21276;BME280;36472;52.170;20.884;2023-05-24T11:36:52;100394.34;;;27.41;37.65
21276;BME280;36472;52.170;20.884;2023-05-24T11:39:22;100387.94;;;27.42;37.68
21276;BME280;36472;52.170;20.884;2023-05-24T11:41:53;100392.53;;;27.35;37.98
21276;BME280;36472;52.170;20.884;2023-05-24T11:44:23;100390.84;;;27.34;37.11
21276;BME280;36472;52.170;20.884;2023-05-24T11:46:57;100392.13;;;27.32;37.43
21276;BME280;36472;52.170;20.884;2023-05-24T11:49:27;100389.00;;;27.28;37.61
21276;BME280;36472;52.170;20.884;2023-05-24T11:51:58;100381.72;;;27.15;38.18
21276;BME280;36472;52.170;20.884;2023-05-24T11:54:29;100387.94;;;27.36;38.21
21276;BME280;36472;52.170;20.884;2023-05-24T11:57:01;100379.03;;;27.87;37.50
21276;BME280;36472;52.170;20.884;2023-05-24T11:59:30;100380.50;;;28.28;36.55
21276;BME280;36472;52.170;20.884;2023-05-24T12:02:01;100378.06;;;28.20;37.21
21276;BME280;36472;52.170;20.884;2023-05-24T12:04:32;100386.09;;;28.02;36.67
21276;BME280;36472;52.170;20.884;2023-05-24T12:07:09;100386.16;;;27.75;37.19
21276;BME280;36472;52.170;20.884;2023-05-24T12:09:39;100379.41;;;27.46;38.41
21276;BME280;36472;52.170;20.884;2023-05-24T12:12:08;100381.94;;;27.34;38.66
21276;BME280;36472;52.170;20.884;2023-05-24T12:14:39;100376.34;;;27.29;38.05
21276;BME280;36472;52.170;20.884;2023-05-24T12:17:13;100375.50;;;27.15;38.29
21276;BME280;36472;52.170;20.884;2023-05-24T12:19:43;100385.03;;;27.11;38.57
21276;BME280;36472;52.170;20.884;2023-05-24T12:22:17;100385.28;;;27.09;38.97
21276;BME280;36472;52.170;20.884;2023-05-24T12:24:48;100376.75;;;27.12;38.37
21276;BME280;36472;52.170;20.884;2023-05-24T12:27:19;100381.53;;;27.10;38.61
21276;BME280;36472;52.170;20.884;2023-05-24T12:29:50;100378.00;;;27.10;37.85
21276;BME280;36472;52.170;20.884;2023-05-24T12:32:20;100381.31;;;27.12;38.65
21276;BME280;36472;52.170;20.884;2023-05-24T12:34:49;100373.41;;;27.23;37.54
21276;BME280;36472;52.170;20.884;2023-05-24T12:37:19;100377.59;;;27.06;38.58
21276;BME280;36472;52.170;20.884;2023-05-24T12:39:48;100368.47;;;27.00;38.35
21276;BME280;36472;52.170;20.884;2023-05-24T12:42:21;100374.09;;;26.99;39.01
21276;BME280;36472;52.170;20.884;2023-05-24T12:44:50;100375.94;;;26.98;39.48
21276;BME280;36472;52.170;20.884;2023-05-24T12:47:21;100379.69;;;26.91;40.29
21276;BME280;36472;52.170;20.884;2023-05-24T12:49:50;100369.72;;;26.91;40.92
21276;BME280;36472;52.170;20.884;2023-05-24T12:52:20;100375.72;;;26.86;41.43
21276;BME280;36472;52.170;20.884;2023-05-24T12:54:51;100375.31;;;26.76;41.08
21276;BME280;36472;52.170;20.884;2023-05-24T12:57:20;100383.81;;;26.73;41.28
21276;BME280;36472;52.170;20.884;2023-05-24T12:59:49;100368.66;;;26.59;40.15